Space — ZCTI8 — position and weather

sailwx.info

Track history (hours):
 
Tides and Currents Weather Stations Pressure Air Temp Water Temp Dewpoint Dewpoint Depression Visibility Wind Speed Wind Dir Waves Ship Positions

Space

Last reported at 2016-Aug-28 19:05 UTC. Time now 2016-Aug-29 03:41 UTC.
Position N 43°16' E 006°40'.

Length 45 m; draft 2.7 m.

Type: Pleasure craft. MMSI: 319917000.

Date/timePositionNaut miles runAvg speedWind from/ knotsBaromVisibWave heightAir tempDewpointWater temp
2016-Aug-28 19:05N 43°16' E 006°40'0 0.0
2016-Aug-28 18:33N 43°16' E 006°40'1 1.2
2016-Aug-28 17:33N 43°17' E 006°41'9 9.2
2016-Aug-28 16:33N 43°09' E 006°35'1 0.1
2016-Aug-28 10:32N 43°09' E 006°35'9 0.5
2016-Aug-27 18:29N 43°16' E 006°40'17 0.7
2016-Aug-26 16:14N 43°26' E 006°60'6 8.9
2016-Aug-26 15:33N 43°32' E 007°03'0 0.1
2016-Aug-26 14:32N 43°32' E 007°03'0 0.0
2016-Aug-26 13:32N 43°32' E 007°03'0 0.0
2016-Aug-26 12:32N 43°32' E 007°03'  
2016-Aug-21 03:16N 42°54' E 007°08'2212.2
2016-Aug-21 01:29N 42°37' E 007°27'1112.1
2016-Aug-21 00:32N 42°28' E 007°37'2411.8
2016-Aug-20 22:30N 42°10' E 007°58'93 8.4
2016-Aug-20 11:26N 41°10' E 009°31'1214.0
2016-Aug-20 10:33N 41°00' E 009°42'  
Track history (hours):
 
Tides and Currents Weather Stations Pressure Air Temp Water Temp Dewpoint Dewpoint Depression Visibility Wind Speed Wind Dir Waves Ship Positions

Space

Last reported at 2016-Aug-28 19:05 UTC. Time now 2016-Aug-29 03:41 UTC.
Position N 43°16' E 006°40'.

Length 45 m; draft 2.7 m.

Type: Pleasure craft. MMSI: 319917000.

Date/timePositionNaut miles runAvg speedWind from/ knotsBaromVisibWave heightAir tempDewpointWater temp
2016-Aug-28 19:05N 43°16' E 006°40'0 0.0
2016-Aug-28 18:33N 43°16' E 006°40'1 1.2
2016-Aug-28 17:33N 43°17' E 006°41'9 9.2
2016-Aug-28 16:33N 43°09' E 006°35'1 0.1
2016-Aug-28 10:32N 43°09' E 006°35'9 0.5
2016-Aug-27 18:29N 43°16' E 006°40'17 0.7
2016-Aug-26 16:14N 43°26' E 006°60'6 8.9
2016-Aug-26 15:33N 43°32' E 007°03'0 0.1
2016-Aug-26 14:32N 43°32' E 007°03'0 0.0
2016-Aug-26 13:32N 43°32' E 007°03'0 0.0
2016-Aug-26 12:32N 43°32' E 007°03'  
2016-Aug-21 03:16N 42°54' E 007°08'2212.2
2016-Aug-21 01:29N 42°37' E 007°27'1112.1
2016-Aug-21 00:32N 42°28' E 007°37'2411.8
2016-Aug-20 22:30N 42°10' E 007°58'93 8.4
2016-Aug-20 11:26N 41°10' E 009°31'1214.0
2016-Aug-20 10:33N 41°00' E 009°42'  

Dump ship's entire track history